createdAt,value
2018-03-03T00:01:04.317Z,93795
2018-03-03T00:06:33.257Z,93817
2018-03-03T00:12:02.185Z,93810
2018-03-03T00:17:30.342Z,93815
2018-03-03T00:22:59.473Z,93816
2018-03-03T00:28:27.638Z,93811
2018-03-03T00:33:55.823Z,93824
2018-03-03T00:39:23.998Z,93824
2018-03-03T00:44:52.191Z,93820
2018-03-03T00:50:21.158Z,93807
2018-03-03T00:55:49.325Z,93812
2018-03-03T01:01:17.474Z,93816
2018-03-03T01:06:45.645Z,93815
2018-03-03T01:12:14.590Z,93818
2018-03-03T01:17:42.767Z,93815
2018-03-03T01:23:10.928Z,93819
2018-03-03T01:28:39.869Z,93824
2018-03-03T01:34:08.026Z,93815
2018-03-03T01:39:36.190Z,93803
2018-03-03T01:45:08.512Z,93805
2018-03-03T01:50:37.450Z,93810
2018-03-03T01:56:06.366Z,93809
2018-03-03T02:01:34.516Z,93811
2018-03-03T02:07:02.701Z,93801
2018-03-03T02:12:30.865Z,93793
2018-03-03T02:17:59.022Z,93799
2018-03-03T02:23:27.182Z,93787
2018-03-03T02:28:55.390Z,93787
2018-03-03T02:34:23.583Z,93774
2018-03-03T02:39:51.880Z,93770
2018-03-03T02:45:20.185Z,93779
2018-03-03T02:50:48.356Z,93760
2018-03-03T02:56:17.569Z,93747
2018-03-03T03:01:45.759Z,93742
2018-03-03T03:07:13.974Z,93750
2018-03-03T03:12:42.126Z,93739
2018-03-03T03:18:10.268Z,93731
2018-03-03T03:23:39.255Z,93726
2018-03-03T03:29:07.448Z,93720
2018-03-03T03:34:35.651Z,93714
2018-03-03T03:40:03.843Z,93712
2018-03-03T03:45:32.019Z,93697
2018-03-03T03:51:00.224Z,93714
2018-03-03T03:56:28.423Z,93693
2018-03-03T04:01:56.601Z,93697
2018-03-03T04:07:25.124Z,93700
2018-03-03T04:12:53.302Z,93690
2018-03-03T04:18:21.599Z,93690
2018-03-03T04:23:49.792Z,93678
2018-03-03T04:29:17.968Z,93659
2018-03-03T04:34:46.133Z,93658
2018-03-03T04:40:15.091Z,93656
2018-03-03T04:45:43.283Z,93649
2018-03-03T04:51:11.470Z,93642
2018-03-03T04:56:39.672Z,93644
2018-03-03T05:08:35.224Z,93619
2018-03-03T05:14:09.135Z,93622
2018-03-03T05:19:43.017Z,93604
2018-03-03T05:25:16.877Z,93599
2018-03-03T05:30:50.646Z,93597
2018-03-03T05:42:45.413Z,93585
2018-03-03T05:54:43.195Z,93551
2018-03-03T06:06:33.872Z,93577
2018-03-03T06:12:02.037Z,93583
2018-03-03T06:17:30.189Z,93556
2018-03-03T06:22:58.368Z,93560
2018-03-03T06:28:27.368Z,93566
2018-03-03T06:33:56.292Z,93564
2018-03-03T06:39:24.522Z,93565
2018-03-03T06:44:52.709Z,93557
2018-03-03T06:50:21.664Z,93574
2018-03-03T06:55:49.906Z,93576
2018-03-03T07:01:18.062Z,93573
2018-03-03T07:06:46.990Z,93563
2018-03-03T07:12:15.922Z,93568
2018-03-03T07:17:44.096Z,93560
2018-03-03T07:23:12.259Z,93551
2018-03-03T07:28:40.652Z,93538
2018-03-03T07:34:08.849Z,93537
2018-03-03T07:39:37.013Z,93551
2018-03-03T07:45:05.177Z,93552
2018-03-03T07:50:33.346Z,93560
2018-03-03T07:56:01.499Z,93550
2018-03-03T08:01:30.408Z,93554
2018-03-03T08:06:58.564Z,93560
2018-03-03T08:12:27.494Z,93553
2018-03-03T08:17:56.627Z,93558
2018-03-03T08:23:25.772Z,93541
2018-03-03T08:28:54.941Z,93550
2018-03-03T08:34:24.446Z,93524
2018-03-03T08:39:52.709Z,93519
2018-03-03T08:45:20.974Z,93516
2018-03-03T08:50:49.173Z,93514
2018-03-03T08:56:17.407Z,93521
2018-03-03T09:01:45.576Z,93511
2018-03-03T09:07:14.496Z,93512
2018-03-03T09:12:42.644Z,93524
2018-03-03T09:18:11.564Z,93537
2018-03-03T09:23:39.708Z,93530
2018-03-03T09:29:07.992Z,93535
2018-03-03T09:34:36.129Z,93541
2018-03-03T09:40:05.042Z,93528
2018-03-03T09:45:33.966Z,93524
2018-03-03T09:51:02.110Z,93515
2018-03-03T09:56:30.272Z,93512
2018-03-03T10:02:05.923Z,93499
2018-03-03T10:07:26.729Z,93493
2018-03-03T10:12:55.070Z,93502
2018-03-03T10:18:23.260Z,93507
2018-03-03T10:23:51.618Z,93503
2018-03-03T10:29:19.796Z,93498
2018-03-03T10:34:47.942Z,93502
2018-03-03T10:40:16.126Z,93486
2018-03-03T10:45:45.034Z,93507
2018-03-03T10:51:13.277Z,93490
2018-03-03T10:56:41.544Z,93498
2018-03-03T11:02:09.692Z,93491
2018-03-03T11:07:37.834Z,93475
2018-03-03T11:13:06.747Z,93482
2018-03-03T11:18:34.897Z,93472
2018-03-03T11:24:03.826Z,93465
2018-03-03T11:29:31.971Z,93464
2018-03-03T11:35:00.534Z,93453
2018-03-03T11:40:33.130Z,93451
2018-03-03T11:45:58.223Z,93438
2018-03-03T11:51:26.388Z,93441
2018-03-03T11:56:55.265Z,93439
2018-03-03T12:02:23.686Z,93443
2018-03-03T12:07:51.836Z,93431
2018-03-03T12:13:19.969Z,93445
2018-03-03T12:18:48.899Z,93448
2018-03-03T12:24:17.934Z,93449
2018-03-03T12:29:46.883Z,93452
2018-03-03T12:35:15.040Z,93453
2018-03-03T12:40:43.198Z,93457
2018-03-03T12:46:11.345Z,93451
2018-03-03T12:51:39.491Z,93464
2018-03-03T12:57:07.725Z,93475
2018-03-03T13:02:35.865Z,93474
2018-03-03T13:08:04.027Z,93484
2018-03-03T13:13:32.937Z,93487
2018-03-03T13:19:01.097Z,93500
2018-03-03T13:24:30.006Z,93488
2018-03-03T13:29:58.185Z,93492
2018-03-03T13:35:27.134Z,93497
2018-03-03T13:40:55.615Z,93511
2018-03-03T13:46:24.713Z,93505
2018-03-03T13:51:53.093Z,93508
2018-03-03T13:57:22.081Z,93510
2018-03-03T14:02:50.432Z,93521
2018-03-03T14:08:18.675Z,93512
2018-03-03T14:13:47.608Z,93508
2018-03-03T14:19:16.538Z,93498
2018-03-03T14:24:45.435Z,93523
2018-03-03T14:30:13.761Z,93544
2018-03-03T14:35:41.948Z,93556
2018-03-03T14:41:10.086Z,93550
2018-03-03T14:46:39.000Z,93553
2018-03-03T14:52:07.154Z,93558
2018-03-03T14:57:35.327Z,93562
2018-03-03T15:03:04.267Z,93569
2018-03-03T15:08:32.382Z,93555
2018-03-03T15:14:01.365Z,93563
2018-03-03T15:19:29.503Z,93588
2018-03-03T15:24:57.773Z,93597
2018-03-03T15:30:26.858Z,93595
2018-03-03T15:35:55.029Z,93602
2018-03-03T15:41:23.969Z,93605
2018-03-03T15:46:52.113Z,93602
2018-03-03T15:52:21.038Z,93642
2018-03-03T15:57:49.192Z,93645
2018-03-03T16:03:17.350Z,93650
2018-03-03T16:08:46.254Z,93655
2018-03-03T16:14:14.392Z,93673
2018-03-03T16:19:48.646Z,93670
2018-03-03T16:25:16.924Z,93683
2018-03-03T16:30:45.073Z,93692
2018-03-03T16:36:13.236Z,93707
2018-03-03T16:41:42.135Z,93715
2018-03-03T16:47:10.300Z,93729
2018-03-03T16:52:39.235Z,93732
2018-03-03T16:58:08.149Z,93738
2018-03-03T17:03:36.302Z,93750
2018-03-03T17:09:04.456Z,93765
2018-03-03T17:14:32.598Z,93774
2018-03-03T17:20:00.752Z,93787
2018-03-03T17:25:29.647Z,93797
2018-03-03T17:30:57.807Z,93815
2018-03-03T17:36:26.793Z,93812
2018-03-03T17:41:54.970Z,93807
2018-03-03T17:47:23.917Z,93823
2018-03-03T17:52:52.073Z,93852
2018-03-03T17:58:20.254Z,93854
2018-03-03T18:03:48.594Z,93858
2018-03-03T18:09:16.718Z,93874
2018-03-03T18:14:44.862Z,93871
2018-03-03T18:20:13.043Z,93872
2018-03-03T18:25:41.240Z,93887
2018-03-03T18:31:10.153Z,93894
2018-03-03T18:36:38.320Z,93896
2018-03-03T18:42:06.448Z,93891
2018-03-03T18:47:34.672Z,93894
2018-03-03T18:53:03.628Z,93904
2018-03-03T18:58:31.786Z,93894
2018-03-03T19:04:01.863Z,93896
2018-03-03T19:09:30.807Z,93901
2018-03-03T19:14:59.785Z,93915
2018-03-03T19:20:27.972Z,93915
2018-03-03T19:25:56.916Z,93908
2018-03-03T19:31:25.082Z,93910
2018-03-03T19:36:53.324Z,93937
2018-03-03T19:42:21.708Z,93946
2018-03-03T19:47:51.082Z,93946
2018-03-03T19:53:19.321Z,93955
2018-03-03T19:58:48.316Z,93956
2018-03-03T20:04:16.461Z,93949
2018-03-03T20:09:44.657Z,93952
2018-03-03T20:15:12.846Z,93961
2018-03-03T20:20:40.989Z,93960
2018-03-03T20:26:09.138Z,93962
2018-03-03T20:31:37.339Z,93964
2018-03-03T20:37:05.507Z,93961
2018-03-03T20:42:34.446Z,93963
2018-03-03T20:48:03.373Z,93972
2018-03-03T20:53:31.525Z,93974
2018-03-03T20:58:59.677Z,93981
2018-03-03T21:04:27.852Z,93980
2018-03-03T21:09:56.015Z,93982
2018-03-03T21:15:24.231Z,93996
2018-03-03T21:20:52.777Z,94000
2018-03-03T21:26:21.060Z,94007
2018-03-03T21:31:49.214Z,94002
2018-03-03T21:37:17.376Z,94017
2018-03-03T21:42:46.283Z,94013
2018-03-03T21:48:14.618Z,94015
2018-03-03T21:53:42.987Z,94018
2018-03-03T21:59:11.200Z,94029
2018-03-03T22:04:39.350Z,94026
2018-03-03T22:10:08.459Z,94027
2018-03-03T22:15:37.595Z,94027
2018-03-03T22:21:06.530Z,94035
2018-03-03T22:26:35.437Z,94025
2018-03-03T22:32:03.591Z,94040
2018-03-03T22:37:32.533Z,94026
2018-03-03T22:43:01.439Z,94032
2018-03-03T22:48:29.579Z,94027
2018-03-03T22:53:58.503Z,94039
2018-03-03T22:59:27.411Z,94037
2018-03-03T23:04:55.612Z,94045
2018-03-03T23:10:23.751Z,94045
2018-03-03T23:15:51.916Z,94055
2018-03-03T23:21:21.029Z,94059
2018-03-03T23:26:49.220Z,94059
2018-03-03T23:32:17.363Z,94058
2018-03-03T23:37:45.510Z,94053
2018-03-03T23:43:14.436Z,94059
2018-03-03T23:48:42.597Z,94061
2018-03-03T23:54:10.730Z,94072
2018-03-03T23:59:39.657Z,94065
